Time;durP1;ratioP1;P1;durP2;ratioP2;P2;SDS_P1;SDS_P2;PMS_P1;PMS_P2;Temp;Humidity;BMP_temperature;BMP_pressure;BME280_temperature;BME280_humidity;BME280_pressure;Samples;Min_cycle;Max_cycle;Signal;HPM_P1;HPM_P2
2023/04/23 00:01:43;;;;;;;4.40;3.53;;;;;14.20;97919.00;;;;5053490;28;20045;-60
2023/04/23 00:04:10;;;;;;;4.00;3.15;;;;;14.10;97911.00;;;;5053294;28;20041;-60
2023/04/23 00:06:38;;;;;;;5.10;3.45;;;;;14.20;97908.00;;;;5053348;28;20052;-60
2023/04/23 00:09:06;;;;;;;3.40;3.10;;;;;14.20;97910.00;;;;5053057;28;20072;-60
2023/04/23 00:11:33;;;;;;;3.40;3.05;;;;;14.10;97909.00;;;;5053034;28;20041;-60
2023/04/23 00:14:00;;;;;;;3.45;3.15;;;;;14.10;97907.00;;;;5051882;28;20095;-60
2023/04/23 00:16:26;;;;;;;3.50;3.20;;;;;14.10;97909.00;;;;5053068;28;20075;-60
2023/04/23 00:18:53;;;;;;;3.42;3.13;;;;;14.10;97917.00;;;;5052728;28;20049;-60
2023/04/23 00:21:19;;;;;;;3.78;3.03;;;;;14.00;97910.00;;;;5052856;28;20409;-59
2023/04/23 00:23:46;;;;;;;3.85;3.47;;;;;14.00;97908.00;;;;5052895;28;20459;-60
2023/04/23 00:26:12;;;;;;;3.83;3.17;;;;;14.10;97900.00;;;;5052871;28;20041;-60
2023/04/23 00:28:39;;;;;;;4.43;3.50;;;;;14.10;97897.00;;;;5052429;28;20044;-60
2023/04/23 00:31:06;;;;;;;4.43;3.53;;;;;14.10;97899.00;;;;5052722;28;20433;-60
2023/04/23 00:33:33;;;;;;;4.55;3.42;;;;;14.20;97903.00;;;;5052750;28;20068;-60
2023/04/23 00:35:59;;;;;;;4.47;3.80;;;;;14.20;97904.00;;;;5052188;28;20498;-61
2023/04/23 00:38:26;;;;;;;3.97;3.63;;;;;14.20;97908.00;;;;5052600;28;20036;-60
2023/04/23 00:40:53;;;;;;;4.25;3.40;;;;;14.20;97916.00;;;;5051138;28;20451;-60
2023/04/23 00:43:20;;;;;;;3.95;3.65;;;;;14.20;97912.00;;;;5052414;28;20052;-58
2023/04/23 00:45:47;;;;;;;4.88;4.35;;;;;14.20;97915.00;;;;5052524;28;20118;-59
2023/04/23 00:48:15;;;;;;;4.53;3.88;;;;;14.20;97910.00;;;;5051115;28;20049;-59
2023/04/23 00:50:42;;;;;;;4.35;3.95;;;;;14.20;97907.00;;;;5050788;28;20048;-59
2023/04/23 00:53:08;;;;;;;4.53;4.13;;;;;14.20;97922.00;;;;5052228;28;20049;-60
2023/04/23 00:55:36;;;;;;;5.97;4.50;;;;;14.10;97909.00;;;;5051141;28;20049;-59
2023/04/23 00:58:03;;;;;;;6.10;4.03;;;;;14.10;97915.00;;;;5050868;28;20567;-59
2023/04/23 01:00:29;;;;;;;5.03;4.25;;;;;14.10;97921.00;;;;5051516;28;20048;-61
2023/04/23 01:02:57;;;;;;;5.47;4.28;;;;;14.10;97926.00;;;;5052534;28;20552;-60
2023/04/23 01:05:24;;;;;;;4.50;4.10;;;;;14.10;97923.00;;;;5051127;28;20044;-59
2023/04/23 01:07:51;;;;;;;5.50;4.13;;;;;14.10;97912.00;;;;5034905;28;20049;-60
2023/04/23 01:10:18;;;;;;;4.43;3.97;;;;;14.10;97917.00;;;;5052367;28;20091;-59
2023/04/23 01:12:45;;;;;;;4.90;4.40;;;;;14.10;97911.00;;;;5052376;28;20055;-60
2023/04/23 01:15:12;;;;;;;5.00;4.10;;;;;14.10;97913.00;;;;5052230;28;20043;-60
2023/04/23 01:17:38;;;;;;;6.47;4.38;;;;;14.10;97918.00;;;;5050844;28;20429;-59
2023/04/23 01:20:07;;;;;;;5.05;3.72;;;;;14.20;97916.00;;;;5051919;28;20056;-59
2023/04/23 01:22:37;;;;;;;4.65;4.18;;;;;14.10;97923.00;;;;5052166;28;20052;-58
2023/04/23 01:25:04;;;;;;;5.10;4.13;;;;;14.10;97911.00;;;;5050688;28;20055;-58
2023/04/23 01:27:32;;;;;;;4.72;4.22;;;;;14.10;97907.00;;;;5051735;28;20433;-59
2023/04/23 01:30:00;;;;;;;4.40;4.00;;;;;14.10;97910.00;;;;5050441;28;20064;-58
2023/04/23 01:32:26;;;;;;;6.15;4.18;;;;;14.00;97907.00;;;;5051960;28;20277;-58
2023/04/23 01:34:54;;;;;;;4.38;3.97;;;;;14.00;97909.00;;;;5050622;28;20140;-59
2023/04/23 01:37:22;;;;;;;6.05;4.20;;;;;14.00;97925.00;;;;5051903;28;20095;-59
2023/04/23 01:39:48;;;;;;;6.53;4.35;;;;;14.00;97916.00;;;;5051778;28;20416;-59
2023/04/23 01:42:15;;;;;;;4.75;4.00;;;;;14.00;97918.00;;;;5050626;28;20057;-60
2023/04/23 01:44:43;;;;;;;4.57;3.97;;;;;14.00;97926.00;;;;5050761;28;20041;-59
2023/04/23 01:47:10;;;;;;;5.00;3.88;;;;;14.00;97922.00;;;;5052476;28;20041;-59
2023/04/23 01:49:36;;;;;;;4.72;4.28;;;;;13.90;97927.00;;;;5055610;28;20049;-59
2023/04/23 01:52:03;;;;;;;4.20;3.80;;;;;13.90;97921.00;;;;5054464;28;20379;-60
2023/04/23 01:54:30;;;;;;;4.78;3.63;;;;;13.90;97931.00;;;;5054460;28;20481;-59
2023/04/23 01:56:57;;;;;;;4.28;3.85;;;;;13.80;97933.00;;;;5054637;28;20079;-59
2023/04/23 01:59:24;;;;;;;4.57;3.88;;;;;13.80;97939.00;;;;5054175;28;20519;-59
2023/04/23 02:01:51;;;;;;;6.32;3.70;;;;;13.70;97938.00;;;;5054248;28;20081;-59
2023/04/23 02:04:18;;;;;;;4.00;3.60;;;;;13.70;97929.00;;;;5054191;28;20051;-59
2023/04/23 02:06:48;;;;;;;3.80;3.30;;;;;13.60;97933.00;;;;5055569;28;20049;-59
2023/04/23 02:09:15;;;;;;;3.95;3.65;;;;;13.60;97939.00;;;;5055342;28;20077;-59
2023/04/23 02:11:42;;;;;;;4.32;3.40;;;;;13.60;97931.00;;;;5053901;28;20051;-60
2023/04/23 02:14:09;;;;;;;3.28;2.97;;;;;13.70;97939.00;;;;5054282;28;20517;-59
2023/04/23 02:16:36;;;;;;;3.35;3.05;;;;;13.80;97934.00;;;;5055366;28;20041;-60
2023/04/23 02:19:03;;;;;;;4.43;3.90;;;;;13.80;97930.00;;;;5053824;28;20045;-58
2023/04/23 02:21:30;;;;;;;3.80;3.47;;;;;13.80;97933.00;;;;5055484;28;20119;-58
2023/04/23 02:23:56;;;;;;;3.28;3.03;;;;;13.80;97931.00;;;;5054148;28;20383;-57
2023/04/23 02:26:24;;;;;;;4.43;3.05;;;;;13.80;97933.00;;;;5054396;28;20049;-57
2023/04/23 02:28:50;;;;;;;3.75;3.45;;;;;13.80;97933.00;;;;5055508;28;20041;-58
2023/04/23 02:31:19;;;;;;;3.47;3.17;;;;;13.80;97931.00;;;;5055105;28;20087;-59
2023/04/23 02:33:45;;;;;;;4.18;3.55;;;;;13.80;97935.00;;;;5055420;28;20072;-58
2023/04/23 02:36:12;;;;;;;3.85;3.40;;;;;13.80;97935.00;;;;5054090;28;20103;-57
2023/04/23 02:38:43;;;;;;;3.67;3.10;;;;;13.80;97930.00;;;;5055463;28;20052;-58
2023/04/23 02:41:11;;;;;;;6.47;3.97;;;;;13.80;97931.00;;;;5055268;28;20052;-58
2023/04/23 02:43:37;;;;;;;3.40;3.10;;;;;13.80;97932.00;;;;5054970;28;20055;-58
2023/04/23 02:46:07;;;;;;;3.65;3.25;;;;;13.80;97933.00;;;;5054216;28;20045;-58
2023/04/23 02:48:40;;;;;;;3.08;2.80;;;;;13.80;97935.00;;;;5055018;28;20033;-58
2023/04/23 02:51:11;;;;;;;4.20;3.78;;;;;13.90;97933.00;;;;5053633;28;20132;-57
2023/04/23 02:53:38;;;;;;;5.10;3.53;;;;;13.80;97930.00;;;;5053635;28;20147;-57
2023/04/23 02:56:06;;;;;;;3.35;2.83;;;;;13.80;97933.00;;;;5053586;28;20140;-58
2023/04/23 02:58:33;;;;;;;3.53;3.20;;;;;13.80;97938.00;;;;5053211;28;20064;-59
2023/04/23 03:01:00;;;;;;;3.92;3.17;;;;;13.80;97950.00;;;;5053795;28;20088;-59
2023/04/23 03:03:31;;;;;;;3.53;3.13;;;;;13.80;97939.00;;;;5053457;28;20067;-58
2023/04/23 03:06:01;;;;;;;3.45;3.15;;;;;13.80;97936.00;;;;5054334;28;20051;-60
2023/04/23 03:08:27;;;;;;;4.53;3.83;;;;;13.80;97936.00;;;;5054063;28;20498;-59
2023/04/23 03:10:54;;;;;;;3.85;3.55;;;;;13.80;97933.00;;;;5053341;28;20048;-59
2023/04/23 03:13:22;;;;;;;4.00;3.70;;;;;13.80;97935.00;;;;5036848;28;20567;-59
2023/04/23 03:15:49;;;;;;;3.90;3.30;;;;;13.70;97937.00;;;;5055589;28;20171;-59
2023/04/23 03:18:16;;;;;;;3.70;3.40;;;;;13.70;97931.00;;;;5054924;28;20175;-59
2023/04/23 03:20:46;;;;;;;3.58;3.28;;;;;13.70;97941.00;;;;5056117;28;20041;-59
2023/04/23 03:23:13;;;;;;;4.10;3.35;;;;;13.60;97931.00;;;;5054804;28;20136;-60
2023/04/23 03:25:39;;;;;;;3.85;3.47;;;;;13.60;97929.00;;;;5054956;28;20135;-59
2023/04/23 03:28:06;;;;;;;4.25;3.83;;;;;13.50;97933.00;;;;5055243;28;20045;-61
2023/04/23 03:30:33;;;;;;;3.85;3.33;;;;;13.60;97936.00;;;;5052754;28;20402;-61
2023/04/23 03:33:01;;;;;;;3.15;2.85;;;;;13.50;97946.00;;;;5054023;28;20072;-60
2023/04/23 03:35:28;;;;;;;3.50;3.20;;;;;13.60;97954.00;;;;5054078;28;20119;-61
2023/04/23 03:37:57;;;;;;;3.30;3.00;;;;;13.60;97945.00;;;;5052461;28;20045;-61
2023/04/23 03:40:24;;;;;;;4.55;3.30;;;;;13.60;97940.00;;;;5052362;28;20060;-63
2023/04/23 03:42:56;;;;;;;3.53;3.22;;;;;13.60;97941.00;;;;5052461;28;20037;-60
2023/04/23 03:45:36;;;;;;;3.35;3.05;;;;;13.60;97947.00;;;;5052524;28;20076;-60
2023/04/23 03:48:03;;;;;;;4.43;3.33;;;;;13.60;97944.00;;;;5052483;28;20068;-60
2023/04/23 03:50:33;;;;;;;3.70;3.40;;;;;13.60;97943.00;;;;5052561;28;20053;-61
2023/04/23 03:53:09;;;;;;;4.30;3.45;;;;;13.60;97943.00;;;;5052078;28;20076;-61
2023/04/23 03:56:05;;;;;;;2.95;2.75;;;;;13.50;97939.00;;;;5048412;28;20060;-59
2023/04/23 03:58:38;;;;;;;3.08;2.88;;;;;13.60;97941.00;;;;5052070;28;20048;-59
2023/04/23 04:01:05;;;;;;;3.50;3.20;;;;;13.60;97943.00;;;;5052066;28;20061;-59
2023/04/23 04:03:33;;;;;;;3.72;3.22;;;;;13.60;97939.00;;;;5051844;28;20501;-57
2023/04/23 04:05:59;;;;;;;3.30;3.00;;;;;13.60;97944.00;;;;5053019;28;20818;-58
2023/04/23 04:08:26;;;;;;;4.25;3.17;;;;;13.60;97944.00;;;;5051857;28;20057;-61
2023/04/23 04:10:52;;;;;;;3.88;3.45;;;;;13.50;97933.00;;;;5051003;28;20143;-59
2023/04/23 04:13:19;;;;;;;4.25;3.20;;;;;13.50;97935.00;;;;5051930;28;20049;-60
2023/04/23 04:15:45;;;;;;;3.22;2.75;;;;;13.50;97936.00;;;;5052083;28;20526;-59
2023/04/23 04:18:12;;;;;;;3.55;3.25;;;;;13.50;97933.00;;;;5053145;28;20048;-60
2023/04/23 04:20:39;;;;;;;3.20;2.90;;;;;13.40;97946.00;;;;5052773;28;20048;-59
2023/04/23 04:23:05;;;;;;;3.35;3.05;;;;;13.40;97941.00;;;;5052849;28;20045;-60
2023/04/23 04:25:32;;;;;;;4.10;2.88;;;;;13.40;97939.00;;;;5052985;28;20045;-58
2023/04/23 04:27:59;;;;;;;3.50;3.20;;;;;13.50;97939.00;;;;5051596;28;20053;-59
2023/04/23 04:30:25;;;;;;;5.32;3.30;;;;;13.40;97939.00;;;;5052567;28;20091;-59
2023/04/23 04:32:52;;;;;;;3.78;3.35;;;;;13.40;97923.00;;;;5052535;28;20045;-58
2023/04/23 04:35:19;;;;;;;3.35;3.05;;;;;13.30;97932.00;;;;5052617;28;20045;-58
2023/04/23 04:37:45;;;;;;;3.90;3.17;;;;;13.20;97924.00;;;;5052720;28;20068;-58
2023/04/23 04:40:13;;;;;;;5.50;3.70;;;;;13.20;97928.00;;;;5052485;28;20048;-57
2023/04/23 04:42:41;;;;;;;3.75;3.40;;;;;13.20;97921.00;;;;5052518;28;20083;-57
2023/04/23 04:45:09;;;;;;;3.58;3.25;;;;;13.20;97923.00;;;;5052721;28;20064;-58
2023/04/23 04:47:35;;;;;;;3.67;3.38;;;;;13.10;97925.00;;;;5052366;28;20101;-57
2023/04/23 04:50:03;;;;;;;3.67;2.92;;;;;13.10;97924.00;;;;5052072;28;20048;-57
2023/04/23 04:52:29;;;;;;;4.18;3.78;;;;;13.10;97916.00;;;;5052255;28;20083;-59
2023/04/23 04:54:56;;;;;;;4.35;3.40;;;;;13.10;97924.00;;;;5052348;28;20106;-58
2023/04/23 04:57:23;;;;;;;3.50;3.03;;;;;13.10;97915.00;;;;5052268;28;20044;-58
2023/04/23 04:59:49;;;;;;;3.40;3.08;;;;;13.20;97920.00;;;;5052064;28;20107;-57
2023/04/23 05:02:16;;;;;;;4.82;3.30;;;;;13.20;97905.00;;;;5052257;28;20045;-57
2023/04/23 05:04:43;;;;;;;3.58;3.28;;;;;13.30;97910.00;;;;5053219;28;20556;-57
2023/04/23 05:07:10;;;;;;;3.70;3.40;;;;;13.40;97904.00;;;;5053820;28;20048;-57
2023/04/23 05:09:36;;;;;;;3.13;2.75;;;;;13.50;97905.00;;;;5053066;28;20048;-55
2023/04/23 05:12:06;;;;;;;3.08;2.78;;;;;13.50;97911.00;;;;5052797;28;20053;-58
2023/04/23 05:14:32;;;;;;;3.67;3.00;;;;;13.50;97915.00;;;;5052800;28;20055;-58
2023/04/23 05:16:59;;;;;;;3.50;3.17;;;;;13.60;97919.00;;;;5051495;28;20498;-57
2023/04/23 05:19:26;;;;;;;3.70;3.17;;;;;13.70;97922.00;;;;5052403;28;20449;-59
2023/04/23 05:21:52;;;;;;;3.33;3.03;;;;;13.70;97912.00;;;;5052084;28;20037;-57
2023/04/23 05:24:19;;;;;;;3.75;3.42;;;;;13.60;97911.00;;;;5052249;28;20049;-57
2023/04/23 05:26:45;;;;;;;4.82;3.25;;;;;13.60;97916.00;;;;5052978;28;20053;-57
2023/04/23 05:29:16;;;;;;;4.90;3.38;;;;;13.60;97907.00;;;;5052165;28;20045;-59
2023/04/23 05:31:43;;;;;;;5.85;3.75;;;;;13.60;97914.00;;;;5052484;28;20497;-58
2023/04/23 05:34:09;;;;;;;3.75;3.13;;;;;13.60;97916.00;;;;5053163;28;20411;-58
2023/04/23 05:36:36;;;;;;;3.60;3.30;;;;;13.60;97914.00;;;;5052985;28;20052;-58
2023/04/23 05:39:02;;;;;;;3.58;3.08;;;;;13.60;97916.00;;;;5052053;28;20045;-59
2023/04/23 05:41:29;;;;;;;3.75;3.30;;;;;13.70;97916.00;;;;5052243;28;20044;-57
2023/04/23 05:43:56;;;;;;;3.42;3.13;;;;;13.80;97924.00;;;;5052582;28;20036;-58
2023/04/23 05:46:22;;;;;;;3.80;3.20;;;;;13.80;97918.00;;;;5050887;28;20041;-57
2023/04/23 05:48:49;;;;;;;3.38;3.08;;;;;14.00;97928.00;;;;5051735;28;20049;-58
2023/04/23 05:51:16;;;;;;;6.95;3.65;;;;;14.00;97931.00;;;;5051798;28;20448;-58
2023/04/23 05:53:43;;;;;;;4.22;3.63;;;;;14.00;97937.00;;;;5051537;28;20042;-58
2023/04/23 05:56:09;;;;;;;4.32;3.53;;;;;14.10;97949.00;;;;5051816;28;20049;-59
2023/04/23 05:58:37;;;;;;;3.97;3.35;;;;;14.10;97947.00;;;;5051395;28;20052;-59
2023/04/23 06:01:04;;;;;;;4.82;3.40;;;;;14.10;97932.00;;;;5051547;28;20045;-58
2023/04/23 06:03:31;;;;;;;5.45;3.47;;;;;14.20;97930.00;;;;5051625;28;20137;-59
2023/04/23 06:05:58;;;;;;;4.85;3.22;;;;;14.30;97935.00;;;;5051458;28;20106;-59
2023/04/23 06:08:24;;;;;;;7.40;4.00;;;;;14.30;97934.00;;;;5051623;28;20053;-58
2023/04/23 06:10:51;;;;;;;3.60;3.30;;;;;14.30;97931.00;;;;5051103;28;20045;-58
2023/04/23 06:13:17;;;;;;;3.58;3.25;;;;;14.30;97927.00;;;;5050281;28;20490;-59
2023/04/23 06:15:44;;;;;;;4.47;3.38;;;;;14.40;97926.00;;;;5051728;28;20045;-58
2023/04/23 06:18:11;;;;;;;5.35;3.83;;;;;14.40;97929.00;;;;5050376;28;20045;-59
2023/04/23 06:20:37;;;;;;;4.45;3.40;;;;;14.50;97939.00;;;;5050126;28;20045;-59
2023/04/23 06:23:05;;;;;;;5.95;3.40;;;;;14.50;97930.00;;;;5050120;28;20049;-60
2023/04/23 06:25:31;;;;;;;4.75;3.40;;;;;14.50;97933.00;;;;5050031;28;20044;-59
2023/04/23 06:27:58;;;;;;;3.80;3.28;;;;;14.50;97937.00;;;;5051507;28;20497;-60
2023/04/23 06:30:28;;;;;;;4.30;3.83;;;;;14.60;97929.00;;;;5050247;28;20077;-59
2023/04/23 06:32:55;;;;;;;5.28;3.40;;;;;14.60;97930.00;;;;5050437;28;20043;-58
2023/04/23 06:35:22;;;;;;;5.35;3.50;;;;;14.70;97933.00;;;;5055232;28;20593;-59
2023/04/23 06:37:48;;;;;;;6.90;4.75;;;;;14.80;97928.00;;;;5055299;28;20086;-59
2023/04/23 06:40:15;;;;;;;3.70;3.10;;;;;14.80;97919.00;;;;5054753;28;20099;-59
2023/04/23 06:42:41;;;;;;;4.78;3.30;;;;;14.90;97926.00;;;;5054876;28;20040;-59
2023/04/23 06:45:15;;;;;;;4.20;3.08;;;;;15.00;97921.00;;;;5053678;28;20051;-59
2023/04/23 06:47:42;;;;;;;3.55;3.25;;;;;15.10;97919.00;;;;5054806;28;20041;-58
2023/04/23 06:50:09;;;;;;;3.90;3.35;;;;;15.20;97910.00;;;;5054471;28;20041;-59
2023/04/23 06:52:35;;;;;;;4.32;3.13;;;;;15.20;97928.00;;;;5054699;28;20037;-60
2023/04/23 06:55:02;;;;;;;4.47;3.53;;;;;15.20;97918.00;;;;5054506;28;20045;-60
2023/04/23 06:57:29;;;;;;;10.65;8.73;;;;;15.20;97915.00;;;;5054674;28;20037;-59
2023/04/23 06:59:55;;;;;;;3.50;3.20;;;;;15.20;97910.00;;;;5054512;28;20036;-59
2023/04/23 07:02:25;;;;;;;4.50;3.97;;;;;15.20;97909.00;;;;5053294;28;20056;-59
2023/04/23 07:04:52;;;;;;;8.38;6.35;;;;;15.10;97907.00;;;;5054981;28;20105;-58
2023/04/23 07:07:18;;;;;;;4.05;3.65;;;;;15.20;97910.00;;;;5054774;28;20052;-61
2023/04/23 07:09:45;;;;;;;5.10;4.30;;;;;15.20;97905.00;;;;5054410;28;20048;-61
2023/04/23 07:12:11;;;;;;;6.55;5.32;;;;;15.20;97908.00;;;;5054357;28;20049;-61
2023/04/23 07:14:38;;;;;;;7.22;4.03;;;;;15.20;97903.00;;;;5054627;28;20056;-61
2023/04/23 07:17:05;;;;;;;3.22;2.92;;;;;15.10;97907.00;;;;5055433;28;20063;-61
2023/04/23 07:19:31;;;;;;;5.63;3.67;;;;;15.20;97899.00;;;;5054975;28;20060;-61
2023/04/23 07:21:58;;;;;;;6.88;3.47;;;;;15.10;97899.00;;;;5053590;28;20049;-62
2023/04/23 07:24:25;;;;;;;4.82;3.25;;;;;15.20;97899.00;;;;5056496;28;20045;-62
2023/04/23 07:26:52;;;;;;;5.28;3.72;;;;;15.20;97895.00;;;;5056280;28;20055;-61
2023/04/23 07:29:18;;;;;;;6.53;3.85;;;;;15.30;97897.00;;;;5059222;28;20037;-61
2023/04/23 07:31:46;;;;;;;5.68;3.42;;;;;15.30;97899.00;;;;5055852;28;20045;-61
2023/04/23 07:34:13;;;;;;;7.82;3.28;;;;;15.40;97889.00;;;;5053667;28;20063;-61
2023/04/23 07:36:39;;;;;;;11.75;3.58;;;;;15.50;97888.00;;;;5054802;28;20091;-62
2023/04/23 07:39:06;;;;;;;5.28;3.53;;;;;15.50;97884.00;;;;5053672;28;20457;-60
2023/04/23 07:41:32;;;;;;;3.40;3.00;;;;;15.50;97888.00;;;;5053659;28;20118;-60
2023/04/23 07:43:59;;;;;;;11.07;7.00;;;;;15.60;97889.00;;;;5053783;28;20115;-61
2023/04/23 07:46:26;;;;;;;5.32;3.00;;;;;15.50;97889.00;;;;5052840;28;20048;-62
2023/04/23 07:48:52;;;;;;;5.50;3.40;;;;;15.60;97885.00;;;;5053190;28;20041;-61
2023/04/23 07:51:21;;;;;;;4.60;3.58;;;;;15.70;97883.00;;;;5053448;28;20048;-61
2023/04/23 07:53:50;;;;;;;4.45;3.22;;;;;15.70;97886.00;;;;5053502;28;20071;-61
2023/04/23 07:56:16;;;;;;;4.20;3.08;;;;;15.90;97887.00;;;;5052357;28;20391;-63
2023/04/23 07:58:43;;;;;;;3.55;3.10;;;;;16.00;97889.00;;;;5053465;28;20118;-60
2023/04/23 08:01:09;;;;;;;3.17;2.88;;;;;16.20;97886.00;;;;5052139;28;20041;-60
2023/04/23 08:03:36;;;;;;;4.75;3.22;;;;;16.30;97882.00;;;;5052003;28;20039;-60
2023/04/23 08:06:03;;;;;;;4.28;2.92;;;;;16.50;97881.00;;;;5053617;28;20510;-59
2023/04/23 08:08:30;;;;;;;4.47;3.30;;;;;16.80;97880.00;;;;5053164;28;20045;-59
2023/04/23 08:10:57;;;;;;;2.70;2.33;;;;;17.20;97874.00;;;;5053227;28;20045;-62
2023/04/23 08:13:24;;;;;;;3.28;2.97;;;;;17.50;97873.00;;;;5052995;28;20497;-60
2023/04/23 08:15:50;;;;;;;3.53;3.17;;;;;17.60;97874.00;;;;5053138;28;20045;-60
2023/04/23 08:18:17;;;;;;;4.82;2.75;;;;;17.70;97867.00;;;;5052939;28;20056;-59
2023/04/23 08:20:44;;;;;;;4.65;2.75;;;;;17.50;97867.00;;;;5052921;28;20094;-58
2023/04/23 08:23:10;;;;;;;5.22;2.83;;;;;17.50;97866.00;;;;5052964;28;20080;-59
2023/04/23 08:25:37;;;;;;;4.47;3.10;;;;;17.70;97863.00;;;;5053011;28;20052;-59
2023/04/23 08:28:04;;;;;;;4.28;2.78;;;;;17.80;97853.00;;;;5052951;28;20037;-60
2023/04/23 08:30:30;;;;;;;2.90;2.60;;;;;18.00;97848.00;;;;5052640;28;20044;-58
2023/04/23 08:32:57;;;;;;;3.70;2.95;;;;;18.10;97854.00;;;;5051704;28;20418;-58
2023/04/23 08:35:23;;;;;;;4.40;3.45;;;;;18.20;97848.00;;;;5052784;28;20698;-58
2023/04/23 08:37:50;;;;;;;6.78;4.07;;;;;18.30;97851.00;;;;5052870;28;20041;-58
2023/04/23 08:40:17;;;;;;;2.85;2.55;;;;;18.30;97845.00;;;;5052984;28;20461;-59
2023/04/23 08:43:05;;;;;;;3.05;2.33;;;;;18.30;97843.00;;;;5052645;28;20037;-59
2023/04/23 08:45:33;;;;;;;4.03;3.50;;;;;18.40;97841.00;;;;5052455;28;20049;-60
2023/04/23 08:48:00;;;;;;;3.30;2.70;;;;;18.70;97833.00;;;;5051256;28;20465;-57
2023/04/23 08:50:29;;;;;;;4.25;2.33;;;;;18.90;97840.00;;;;5052470;28;20080;-57
2023/04/23 08:52:57;;;;;;;7.60;2.67;;;;;19.00;97843.00;;;;5051253;28;20044;-58
2023/04/23 08:55:24;;;;;;;3.63;2.53;;;;;18.90;97846.00;;;;5052450;28;20056;-57
2023/04/23 08:57:51;;;;;;;4.32;2.47;;;;;18.90;97844.00;;;;5050821;28;20044;-59
2023/04/23 09:00:21;;;;;;;2.85;2.33;;;;;18.90;97843.00;;;;5052356;28;20033;-59
2023/04/23 09:02:49;;;;;;;4.43;2.30;;;;;18.80;97857.00;;;;5052372;28;20656;-60
2023/04/23 09:05:16;;;;;;;4.43;2.58;;;;;18.60;97851.00;;;;5052342;28;20135;-59
2023/04/23 09:07:43;;;;;;;3.58;2.75;;;;;18.60;97849.00;;;;5052152;28;20036;-58
2023/04/23 09:10:11;;;;;;;2.92;2.05;;;;;18.70;97844.00;;;;5051188;28;20430;-59
2023/04/23 09:12:42;;;;;;;2.00;1.80;;;;;18.80;97839.00;;;;5052158;28;20120;-60
2023/04/23 09:15:09;;;;;;;3.30;1.92;;;;;19.00;97839.00;;;;5052165;28;20041;-61
2023/04/23 09:17:42;;;;;;;2.67;1.77;;;;;19.10;97832.00;;;;5052012;28;20557;-60
2023/04/23 09:20:10;;;;;;;2.60;2.25;;;;;19.30;97833.00;;;;5051830;28;20693;-60
2023/04/23 09:22:56;;;;;;;3.17;2.20;;;;;19.40;97833.00;;;;5052096;28;20132;-58
2023/04/23 09:25:24;;;;;;;3.45;2.00;;;;;19.50;97833.00;;;;5050944;28;20037;-59
2023/04/23 09:27:51;;;;;;;3.92;2.13;;;;;19.50;97825.00;;;;5050872;28;20106;-59
2023/04/23 09:30:19;;;;;;;3.35;1.80;;;;;19.70;97825.00;;;;5050632;28;20040;-59
2023/04/23 09:32:46;;;;;;;2.33;1.90;;;;;20.00;97826.00;;;;5051964;28;20041;-59
2023/04/23 09:35:15;;;;;;;2.28;1.75;;;;;20.10;97820.00;;;;5051778;28;20044;-59
2023/04/23 09:37:47;;;;;;;2.28;1.73;;;;;20.10;97819.00;;;;5051843;28;20052;-59
2023/04/23 09:40:16;;;;;;;2.33;2.00;;;;;20.20;97815.00;;;;5050754;28;20049;-59
2023/04/23 09:42:53;;;;;;;4.97;1.77;;;;;20.20;97822.00;;;;5051657;28;20048;-59
2023/04/23 09:45:19;;;;;;;3.25;1.70;;;;;20.10;97814.00;;;;5052377;28;20509;-58
2023/04/23 09:47:54;;;;;;;3.75;2.00;;;;;20.10;97808.00;;;;5051998;28;20041;-60
2023/04/23 09:50:35;;;;;;;3.90;1.45;;;;;20.00;97804.00;;;;5051730;28;20057;-60
2023/04/23 09:53:03;;;;;;;2.90;1.65;;;;;19.90;97801.00;;;;5051664;28;20402;-60
2023/04/23 09:55:34;;;;;;;3.42;1.42;;;;;19.90;97800.00;;;;5052238;28;20041;-60
2023/04/23 09:58:03;;;;;;;4.15;1.70;;;;;19.90;97795.00;;;;5051974;28;20048;-58
2023/04/23 10:00:35;;;;;;;3.28;1.55;;;;;20.00;97801.00;;;;5052027;28;20094;-62
2023/04/23 10:03:03;;;;;;;3.22;1.52;;;;;20.10;97789.00;;;;5050446;28;20131;-61
2023/04/23 10:05:29;;;;;;;2.08;1.80;;;;;20.10;97788.00;;;;5051840;28;20041;-61
2023/04/23 10:08:06;;;;;;;3.63;1.80;;;;;20.10;97788.00;;;;5052119;28;20045;-58
2023/04/23 10:10:35;;;;;;;1.50;1.40;;;;;20.10;97787.00;;;;5055194;28;20105;-60
2023/04/23 10:13:17;;;;;;;3.45;1.98;;;;;20.10;97780.00;;;;5055478;28;20037;-59
2023/04/23 10:15:47;;;;;;;2.22;1.70;;;;;20.10;97783.00;;;;5055509;28;20052;-59
2023/04/23 10:18:13;;;;;;;1.63;1.30;;;;;20.10;97779.00;;;;5055351;28;20047;-61
2023/04/23 10:20:41;;;;;;;2.45;1.90;;;;;20.20;97783.00;;;;5055127;28;20048;-60
2023/04/23 10:23:08;;;;;;;2.88;1.92;;;;;20.10;97773.00;;;;5055237;28;20048;-61
2023/04/23 10:25:37;;;;;;;2.97;1.58;;;;;20.00;97773.00;;;;5055200;28;20055;-59
2023/04/23 10:28:06;;;;;;;3.95;2.42;;;;;20.00;97769.00;;;;5054920;28;20045;-57
2023/04/23 10:30:35;;;;;;;1.70;1.60;;;;;20.10;97773.00;;;;5054885;28;20052;-59
2023/04/23 10:33:03;;;;;;;1.95;1.55;;;;;20.20;97769.00;;;;5053831;28;20045;-59
2023/04/23 10:35:34;;;;;;;1.80;1.67;;;;;20.20;97762.00;;;;5053628;28;20103;-59
2023/04/23 10:38:02;;;;;;;2.40;1.50;;;;;20.10;97752.00;;;;5055229;28;20076;-59
2023/04/23 10:40:32;;;;;;;4.45;1.83;;;;;20.00;97753.00;;;;5054713;28;20050;-59
2023/04/23 10:42:59;;;;;;;1.58;1.40;;;;;20.10;97747.00;;;;5054741;28;20091;-60
2023/04/23 10:45:29;;;;;;;4.72;1.40;;;;;20.10;97733.00;;;;5054798;28;20048;-61
2023/04/23 10:47:57;;;;;;;2.90;1.40;;;;;20.10;97733.00;;;;5054651;28;20053;-59
2023/04/23 10:50:26;;;;;;;2.10;1.40;;;;;20.20;97732.00;;;;5054680;28;20441;-60
2023/04/23 10:52:55;;;;;;;3.78;1.67;;;;;20.30;97728.00;;;;5054766;28;20107;-61
2023/04/23 10:55:24;;;;;;;2.13;1.30;;;;;20.40;97727.00;;;;5054683;28;20041;-60
2023/04/23 10:57:58;;;;;;;2.42;1.50;;;;;20.50;97723.00;;;;5054700;28;20076;-60
2023/04/23 11:00:28;;;;;;;3.08;1.42;;;;;20.60;97712.00;;;;5054333;28;20498;-59
2023/04/23 11:02:55;;;;;;;4.60;2.30;;;;;20.60;97717.00;;;;5037106;28;20083;-59
2023/04/23 11:05:23;;;;;;;2.00;1.52;;;;;20.70;97704.00;;;;5054908;28;20045;-58
2023/04/23 11:08:07;;;;;;;4.57;3.83;;;;;20.70;97712.00;;;;5054821;28;20105;-57
2023/04/23 11:10:55;;;;;;;2.85;1.67;;;;;20.50;97712.00;;;;5053566;28;20057;-58
2023/04/23 11:13:24;;;;;;;1.73;1.40;;;;;20.40;97710.00;;;;5056302;28;20498;-58
2023/04/23 11:16:17;;;;;;;4.63;2.70;;;;;20.60;97712.00;;;;5054640;28;20051;-58
2023/04/23 11:19:02;;;;;;;2.47;1.58;;;;;20.70;97713.00;;;;5054036;28;20032;-59
2023/04/23 11:22:00;;;;;;;1.60;1.40;;;;;20.90;97702.00;;;;5054644;28;20059;-58
2023/04/23 11:24:41;;;;;;;3.88;1.95;;;;;21.10;97698.00;;;;5054901;28;20079;-58
2023/04/23 11:27:10;;;;;;;2.90;2.10;;;;;21.10;97692.00;;;;5054389;28;20041;-57
2023/04/23 11:29:39;;;;;;;2.35;2.15;;;;;21.10;97692.00;;;;5054289;28;20049;-57
2023/04/23 11:32:11;;;;;;;3.00;1.60;;;;;21.00;97683.00;;;;5053029;28;20051;-58
2023/04/23 11:34:39;;;;;;;2.50;1.48;;;;;20.80;97681.00;;;;5054419;28;20129;-59
2023/04/23 11:37:14;;;;;;;1.65;1.40;;;;;21.00;97683.00;;;;5054644;28;20111;-60
2023/04/23 11:39:42;;;;;;;1.42;1.33;;;;;21.40;97663.00;;;;5054979;28;20049;-59
2023/04/23 11:42:11;;;;;;;1.95;1.48;;;;;21.60;97666.00;;;;5055270;28;20044;-59
2023/04/23 11:44:40;;;;;;;2.05;1.85;;;;;21.80;97664.00;;;;5055641;28;20043;-60
2023/04/23 11:47:11;;;;;;;3.65;1.63;;;;;22.00;97656.00;;;;5055905;28;20048;-59
2023/04/23 11:49:39;;;;;;;1.73;1.30;;;;;21.90;97649.00;;;;5053987;28;20432;-59
2023/04/23 11:52:07;;;;;;;4.65;1.60;;;;;22.00;97658.00;;;;5057409;28;20053;-59
2023/04/23 11:54:34;;;;;;;4.00;1.55;;;;;22.20;97651.00;;;;5055708;28;20044;-59
2023/04/23 11:57:04;;;;;;;1.83;1.33;;;;;22.30;97646.00;;;;5054016;28;20040;-60
2023/04/23 11:59:31;;;;;;;3.70;1.00;;;;;22.40;97637.00;;;;5054103;28;20049;-60
2023/04/23 12:01:58;;;;;;;2.08;1.30;;;;;22.20;97641.00;;;;5053879;28;20049;-60
2023/04/23 12:04:27;;;;;;;2.25;1.35;;;;;22.10;97631.00;;;;5052091;28;20052;-60
2023/04/23 12:06:55;;;;;;;7.03;2.55;;;;;22.00;97628.00;;;;5052076;28;20049;-60
2023/04/23 12:09:25;;;;;;;3.58;2.33;;;;;22.10;97634.00;;;;5053023;28;20045;-58
2023/04/23 12:11:52;;;;;;;2.65;1.42;;;;;22.20;97620.00;;;;5053162;28;20084;-59
2023/04/23 12:14:27;;;;;;;1.70;1.30;;;;;22.20;97615.00;;;;5053248;28;20128;-59
2023/04/23 12:16:54;;;;;;;2.60;1.50;;;;;22.20;97610.00;;;;5053514;28;20059;-58
2023/04/23 12:19:25;;;;;;;2.08;1.50;;;;;22.30;97600.00;;;;5053642;28;20100;-59
2023/04/23 12:22:01;;;;;;;1.90;1.40;;;;;22.20;97601.00;;;;5053354;28;20060;-57
2023/04/23 12:24:30;;;;;;;4.28;3.25;;;;;22.10;97599.00;;;;5053713;28;20116;-57